sensor_id;sensor_type;location;lat;lon;timestamp;temperature;humidity
13998;DHT22;7074;51.508;7.018;2024-01-30T00:00:10;8.80;99.90
13998;DHT22;7074;51.508;7.018;2024-01-30T00:02:44;8.90;99.90
13998;DHT22;7074;51.508;7.018;2024-01-30T00:05:24;8.90;99.90
13998;DHT22;7074;51.508;7.018;2024-01-30T00:07:56;8.90;99.90
13998;DHT22;7074;51.508;7.018;2024-01-30T00:10:24;8.90;99.90
13998;DHT22;7074;51.508;7.018;2024-01-30T00:12:58;8.80;99.90
13998;DHT22;7074;51.508;7.018;2024-01-30T00:15:53;8.80;99.90
13998;DHT22;7074;51.508;7.018;2024-01-30T00:18:20;8.80;99.90
13998;DHT22;7074;51.508;7.018;2024-01-30T00:20:54;8.80;99.90
13998;DHT22;7074;51.508;7.018;2024-01-30T00:23:22;8.80;99.90
13998;DHT22;7074;51.508;7.018;2024-01-30T00:25:50;8.80;99.90
13998;DHT22;7074;51.508;7.018;2024-01-30T00:28:22;8.80;99.90
13998;DHT22;7074;51.508;7.018;2024-01-30T00:30:51;8.80;99.90
13998;DHT22;7074;51.508;7.018;2024-01-30T00:33:21;8.80;99.90
13998;DHT22;7074;51.508;7.018;2024-01-30T00:36:01;8.70;99.90
13998;DHT22;7074;51.508;7.018;2024-01-30T00:38:35;8.70;99.90
13998;DHT22;7074;51.508;7.018;2024-01-30T00:41:07;8.70;99.90
13998;DHT22;7074;51.508;7.018;2024-01-30T00:43:45;8.80;99.90
13998;DHT22;7074;51.508;7.018;2024-01-30T00:46:12;8.80;99.90
13998;DHT22;7074;51.508;7.018;2024-01-30T00:48:49;8.80;99.90
13998;DHT22;7074;51.508;7.018;2024-01-30T00:51:21;8.80;99.90
13998;DHT22;7074;51.508;7.018;2024-01-30T00:53:50;8.80;99.90
13998;DHT22;7074;51.508;7.018;2024-01-30T00:56:21;8.80;99.90
13998;DHT22;7074;51.508;7.018;2024-01-30T00:58:51;8.90;99.90
13998;DHT22;7074;51.508;7.018;2024-01-30T01:01:20;9.00;99.90
13998;DHT22;7074;51.508;7.018;2024-01-30T01:03:47;9.10;99.90
13998;DHT22;7074;51.508;7.018;2024-01-30T01:06:16;9.10;99.90
13998;DHT22;7074;51.508;7.018;2024-01-30T01:08:50;9.20;99.90
13998;DHT22;7074;51.508;7.018;2024-01-30T01:11:17;9.20;99.90
13998;DHT22;7074;51.508;7.018;2024-01-30T01:13:45;9.30;99.90
13998;DHT22;7074;51.508;7.018;2024-01-30T01:16:13;9.20;99.90
13998;DHT22;7074;51.508;7.018;2024-01-30T01:18:45;9.30;99.90
13998;DHT22;7074;51.508;7.018;2024-01-30T01:21:20;9.40;99.90
13998;DHT22;7074;51.508;7.018;2024-01-30T01:23:53;9.40;99.90
13998;DHT22;7074;51.508;7.018;2024-01-30T01:26:23;9.40;99.90
13998;DHT22;7074;51.508;7.018;2024-01-30T01:28:53;9.40;99.90
13998;DHT22;7074;51.508;7.018;2024-01-30T01:31:23;9.50;99.90
13998;DHT22;7074;51.508;7.018;2024-01-30T01:33:57;9.50;99.90
13998;DHT22;7074;51.508;7.018;2024-01-30T01:36:25;9.50;99.90
13998;DHT22;7074;51.508;7.018;2024-01-30T01:38:54;9.50;99.90
13998;DHT22;7074;51.508;7.018;2024-01-30T01:41:21;9.50;99.90
13998;DHT22;7074;51.508;7.018;2024-01-30T01:43:52;9.50;99.90
13998;DHT22;7074;51.508;7.018;2024-01-30T01:46:21;9.50;99.90
13998;DHT22;7074;51.508;7.018;2024-01-30T01:48:50;9.40;99.90
13998;DHT22;7074;51.508;7.018;2024-01-30T01:51:18;9.40;99.90
13998;DHT22;7074;51.508;7.018;2024-01-30T01:53:50;9.40;99.90
13998;DHT22;7074;51.508;7.018;2024-01-30T01:56:22;9.40;99.90
13998;DHT22;7074;51.508;7.018;2024-01-30T01:58:54;9.40;99.90
13998;DHT22;7074;51.508;7.018;2024-01-30T02:01:27;9.40;99.90
13998;DHT22;7074;51.508;7.018;2024-01-30T02:04:05;9.30;99.90
13998;DHT22;7074;51.508;7.018;2024-01-30T02:06:33;9.40;99.90
13998;DHT22;7074;51.508;7.018;2024-01-30T02:09:01;9.40;99.90
13998;DHT22;7074;51.508;7.018;2024-01-30T02:11:32;9.40;99.90
13998;DHT22;7074;51.508;7.018;2024-01-30T02:14:06;9.40;99.90
13998;DHT22;7074;51.508;7.018;2024-01-30T02:16:39;9.30;99.90
13998;DHT22;7074;51.508;7.018;2024-01-30T02:19:21;9.30;99.90
13998;DHT22;7074;51.508;7.018;2024-01-30T02:21:50;9.30;99.90
13998;DHT22;7074;51.508;7.018;2024-01-30T02:24:20;9.20;99.90
13998;DHT22;7074;51.508;7.018;2024-01-30T02:27:02;9.20;99.90
13998;DHT22;7074;51.508;7.018;2024-01-30T02:29:30;9.20;99.90
13998;DHT22;7074;51.508;7.018;2024-01-30T02:31:59;9.20;99.90
13998;DHT22;7074;51.508;7.018;2024-01-30T02:34:42;9.10;99.90
13998;DHT22;7074;51.508;7.018;2024-01-30T02:37:14;9.00;99.90
13998;DHT22;7074;51.508;7.018;2024-01-30T02:39:42;9.00;99.90
13998;DHT22;7074;51.508;7.018;2024-01-30T02:42:12;9.00;99.90
13998;DHT22;7074;51.508;7.018;2024-01-30T02:44:39;9.00;99.90
13998;DHT22;7074;51.508;7.018;2024-01-30T02:47:06;9.00;99.90
13998;DHT22;7074;51.508;7.018;2024-01-30T02:49:38;8.90;99.90
13998;DHT22;7074;51.508;7.018;2024-01-30T02:52:08;8.80;99.90
13998;DHT22;7074;51.508;7.018;2024-01-30T02:54:38;8.80;99.90
13998;DHT22;7074;51.508;7.018;2024-01-30T02:57:08;8.80;99.90
13998;DHT22;7074;51.508;7.018;2024-01-30T02:59:37;8.70;99.90
13998;DHT22;7074;51.508;7.018;2024-01-30T03:02:06;8.70;99.90
13998;DHT22;7074;51.508;7.018;2024-01-30T03:04:36;8.70;99.90
13998;DHT22;7074;51.508;7.018;2024-01-30T03:07:08;8.70;99.90
13998;DHT22;7074;51.508;7.018;2024-01-30T03:09:42;8.70;99.90
13998;DHT22;7074;51.508;7.018;2024-01-30T03:12:09;8.70;99.90
13998;DHT22;7074;51.508;7.018;2024-01-30T03:14:38;8.60;99.90
13998;DHT22;7074;51.508;7.018;2024-01-30T03:17:05;8.70;99.90
13998;DHT22;7074;51.508;7.018;2024-01-30T03:19:33;8.70;99.90
13998;DHT22;7074;51.508;7.018;2024-01-30T03:22:09;8.60;99.90
13998;DHT22;7074;51.508;7.018;2024-01-30T03:24:39;8.70;99.90
13998;DHT22;7074;51.508;7.018;2024-01-30T03:27:07;8.70;99.90
13998;DHT22;7074;51.508;7.018;2024-01-30T03:29:37;8.60;99.90
13998;DHT22;7074;51.508;7.018;2024-01-30T03:32:09;8.60;99.90
13998;DHT22;7074;51.508;7.018;2024-01-30T03:34:38;8.50;99.90
13998;DHT22;7074;51.508;7.018;2024-01-30T03:37:08;8.50;99.90
13998;DHT22;7074;51.508;7.018;2024-01-30T03:39:41;8.40;99.90
13998;DHT22;7074;51.508;7.018;2024-01-30T03:42:08;8.40;99.90
13998;DHT22;7074;51.508;7.018;2024-01-30T03:44:39;8.40;99.90
13998;DHT22;7074;51.508;7.018;2024-01-30T03:47:07;8.40;99.90
13998;DHT22;7074;51.508;7.018;2024-01-30T03:49:40;8.30;99.90
13998;DHT22;7074;51.508;7.018;2024-01-30T03:52:07;8.30;99.90
13998;DHT22;7074;51.508;7.018;2024-01-30T03:54:35;8.30;99.90
13998;DHT22;7074;51.508;7.018;2024-01-30T03:57:06;8.30;99.90
13998;DHT22;7074;51.508;7.018;2024-01-30T03:59:34;8.30;99.90
13998;DHT22;7074;51.508;7.018;2024-01-30T04:02:03;8.20;99.90
13998;DHT22;7074;51.508;7.018;2024-01-30T04:04:32;8.20;99.90
13998;DHT22;7074;51.508;7.018;2024-01-30T04:06:59;8.20;99.90
13998;DHT22;7074;51.508;7.018;2024-01-30T04:09:27;8.10;99.90
13998;DHT22;7074;51.508;7.018;2024-01-30T04:11:54;8.00;99.90
13998;DHT22;7074;51.508;7.018;2024-01-30T04:14:24;8.10;99.90
13998;DHT22;7074;51.508;7.018;2024-01-30T04:16:56;8.00;99.90
13998;DHT22;7074;51.508;7.018;2024-01-30T04:19:25;7.90;99.90
13998;DHT22;7074;51.508;7.018;2024-01-30T04:21:57;7.90;99.90
13998;DHT22;7074;51.508;7.018;2024-01-30T04:24:24;8.00;99.90
13998;DHT22;7074;51.508;7.018;2024-01-30T04:27:02;7.90;99.90
13998;DHT22;7074;51.508;7.018;2024-01-30T04:29:31;7.90;99.90
13998;DHT22;7074;51.508;7.018;2024-01-30T04:32:00;7.80;99.90
13998;DHT22;7074;51.508;7.018;2024-01-30T04:34:31;7.80;99.90
13998;DHT22;7074;51.508;7.018;2024-01-30T04:37:08;7.80;99.90
13998;DHT22;7074;51.508;7.018;2024-01-30T04:39:43;7.80;99.90
13998;DHT22;7074;51.508;7.018;2024-01-30T04:42:12;7.80;99.90
13998;DHT22;7074;51.508;7.018;2024-01-30T04:44:41;7.90;99.90
13998;DHT22;7074;51.508;7.018;2024-01-30T04:47:09;7.90;99.90
13998;DHT22;7074;51.508;7.018;2024-01-30T04:49:38;7.90;99.90
13998;DHT22;7074;51.508;7.018;2024-01-30T04:52:07;8.00;99.90
13998;DHT22;7074;51.508;7.018;2024-01-30T04:54:37;8.00;99.90
13998;DHT22;7074;51.508;7.018;2024-01-30T04:57:05;8.10;99.90
13998;DHT22;7074;51.508;7.018;2024-01-30T04:59:35;8.20;99.90
13998;DHT22;7074;51.508;7.018;2024-01-30T05:02:11;8.20;99.90
13998;DHT22;7074;51.508;7.018;2024-01-30T05:04:38;8.40;99.90
13998;DHT22;7074;51.508;7.018;2024-01-30T05:07:11;8.60;99.90
13998;DHT22;7074;51.508;7.018;2024-01-30T05:09:39;9.00;99.90
13998;DHT22;7074;51.508;7.018;2024-01-30T05:12:07;9.20;99.90
13998;DHT22;7074;51.508;7.018;2024-01-30T05:14:37;9.20;99.90
13998;DHT22;7074;51.508;7.018;2024-01-30T05:17:07;9.20;99.90
13998;DHT22;7074;51.508;7.018;2024-01-30T05:19:38;9.30;99.90
13998;DHT22;7074;51.508;7.018;2024-01-30T05:22:07;9.40;99.90
13998;DHT22;7074;51.508;7.018;2024-01-30T05:24:39;9.50;99.90
13998;DHT22;7074;51.508;7.018;2024-01-30T05:27:09;9.50;99.90
13998;DHT22;7074;51.508;7.018;2024-01-30T05:29:39;9.70;99.90
13998;DHT22;7074;51.508;7.018;2024-01-30T05:32:08;9.70;99.90
13998;DHT22;7074;51.508;7.018;2024-01-30T05:34:38;9.80;99.90
13998;DHT22;7074;51.508;7.018;2024-01-30T05:37:06;9.80;99.90
13998;DHT22;7074;51.508;7.018;2024-01-30T05:39:33;9.90;99.90
13998;DHT22;7074;51.508;7.018;2024-01-30T05:42:03;9.90;99.90
13998;DHT22;7074;51.508;7.018;2024-01-30T05:44:33;10.00;99.90
13998;DHT22;7074;51.508;7.018;2024-01-30T05:47:02;10.00;99.90
13998;DHT22;7074;51.508;7.018;2024-01-30T05:49:32;10.10;99.90
13998;DHT22;7074;51.508;7.018;2024-01-30T05:52:03;10.10;99.90
13998;DHT22;7074;51.508;7.018;2024-01-30T05:54:31;10.10;99.90
13998;DHT22;7074;51.508;7.018;2024-01-30T05:57:05;10.10;99.90
13998;DHT22;7074;51.508;7.018;2024-01-30T05:59:46;10.10;99.90
13998;DHT22;7074;51.508;7.018;2024-01-30T06:02:19;10.20;99.90
13998;DHT22;7074;51.508;7.018;2024-01-30T06:04:46;10.20;99.90
13998;DHT22;7074;51.508;7.018;2024-01-30T06:07:21;10.30;99.90
13998;DHT22;7074;51.508;7.018;2024-01-30T06:09:56;10.30;99.90
13998;DHT22;7074;51.508;7.018;2024-01-30T06:12:23;10.30;99.90
13998;DHT22;7074;51.508;7.018;2024-01-30T06:14:56;10.30;99.90
13998;DHT22;7074;51.508;7.018;2024-01-30T06:17:24;10.30;99.90
13998;DHT22;7074;51.508;7.018;2024-01-30T06:19:51;10.30;99.90
13998;DHT22;7074;51.508;7.018;2024-01-30T06:22:21;10.40;99.90
13998;DHT22;7074;51.508;7.018;2024-01-30T06:24:48;10.40;99.90
13998;DHT22;7074;51.508;7.018;2024-01-30T06:27:16;10.40;99.90
13998;DHT22;7074;51.508;7.018;2024-01-30T06:29:44;10.40;99.90
13998;DHT22;7074;51.508;7.018;2024-01-30T06:32:21;10.40;99.90
13998;DHT22;7074;51.508;7.018;2024-01-30T06:34:48;10.40;99.90
13998;DHT22;7074;51.508;7.018;2024-01-30T06:37:15;10.30;99.90
13998;DHT22;7074;51.508;7.018;2024-01-30T06:39:45;10.30;99.90
13998;DHT22;7074;51.508;7.018;2024-01-30T06:42:16;10.30;99.90
13998;DHT22;7074;51.508;7.018;2024-01-30T06:44:49;10.40;99.90
13998;DHT22;7074;51.508;7.018;2024-01-30T06:47:19;10.40;99.90
13998;DHT22;7074;51.508;7.018;2024-01-30T06:49:46;10.50;99.90
13998;DHT22;7074;51.508;7.018;2024-01-30T06:52:14;10.50;99.90
13998;DHT22;7074;51.508;7.018;2024-01-30T06:54:45;10.60;99.90
13998;DHT22;7074;51.508;7.018;2024-01-30T06:57:12;10.50;99.90
13998;DHT22;7074;51.508;7.018;2024-01-30T06:59:40;10.60;99.90
13998;DHT22;7074;51.508;7.018;2024-01-30T07:02:09;10.60;99.90
13998;DHT22;7074;51.508;7.018;2024-01-30T07:04:37;10.60;99.90
13998;DHT22;7074;51.508;7.018;2024-01-30T07:07:05;10.60;99.90
13998;DHT22;7074;51.508;7.018;2024-01-30T07:09:41;10.60;99.90
13998;DHT22;7074;51.508;7.018;2024-01-30T07:12:10;10.60;99.90
13998;DHT22;7074;51.508;7.018;2024-01-30T07:14:40;10.70;99.90
13998;DHT22;7074;51.508;7.018;2024-01-30T07:17:07;10.60;99.90
13998;DHT22;7074;51.508;7.018;2024-01-30T07:19:38;10.60;99.90
13998;DHT22;7074;51.508;7.018;2024-01-30T07:22:05;10.60;99.90
13998;DHT22;7074;51.508;7.018;2024-01-30T07:24:35;10.70;99.90
13998;DHT22;7074;51.508;7.018;2024-01-30T07:27:02;10.70;99.90
13998;DHT22;7074;51.508;7.018;2024-01-30T07:29:31;10.80;99.90
13998;DHT22;7074;51.508;7.018;2024-01-30T07:31:59;10.80;99.90
13998;DHT22;7074;51.508;7.018;2024-01-30T07:34:26;10.80;99.90
13998;DHT22;7074;51.508;7.018;2024-01-30T07:36:56;10.80;99.90
13998;DHT22;7074;51.508;7.018;2024-01-30T07:39:25;10.90;99.90
13998;DHT22;7074;51.508;7.018;2024-01-30T07:41:52;10.80;99.90
13998;DHT22;7074;51.508;7.018;2024-01-30T07:44:22;10.80;99.90
13998;DHT22;7074;51.508;7.018;2024-01-30T07:47:04;10.80;99.90
13998;DHT22;7074;51.508;7.018;2024-01-30T07:49:32;10.90;99.90
13998;DHT22;7074;51.508;7.018;2024-01-30T07:52:00;10.90;99.90
13998;DHT22;7074;51.508;7.018;2024-01-30T07:54:31;10.90;99.90
13998;DHT22;7074;51.508;7.018;2024-01-30T08:01:27;11.00;99.90
13998;DHT22;7074;51.508;7.018;2024-01-30T08:03:56;11.00;99.90
13998;DHT22;7074;51.508;7.018;2024-01-30T08:06:23;11.10;99.90
13998;DHT22;7074;51.508;7.018;2024-01-30T08:08:51;11.10;99.90
13998;DHT22;7074;51.508;7.018;2024-01-30T08:11:20;11.10;99.90
13998;DHT22;7074;51.508;7.018;2024-01-30T08:13:53;11.10;99.90
13998;DHT22;7074;51.508;7.018;2024-01-30T08:16:21;11.20;99.90
13998;DHT22;7074;51.508;7.018;2024-01-30T08:18:49;11.20;99.90
13998;DHT22;7074;51.508;7.018;2024-01-30T08:21:20;11.20;99.90
13998;DHT22;7074;51.508;7.018;2024-01-30T08:23:54;11.30;99.90
13998;DHT22;7074;51.508;7.018;2024-01-30T08:26:21;11.30;99.90
13998;DHT22;7074;51.508;7.018;2024-01-30T08:28:50;11.30;99.90
13998;DHT22;7074;51.508;7.018;2024-01-30T08:31:19;11.30;99.90
13998;DHT22;7074;51.508;7.018;2024-01-30T08:33:48;11.40;99.90
13998;DHT22;7074;51.508;7.018;2024-01-30T08:36:25;11.40;99.90
13998;DHT22;7074;51.508;7.018;2024-01-30T08:38:55;11.40;99.90
13998;DHT22;7074;51.508;7.018;2024-01-30T08:41:22;11.40;99.90
13998;DHT22;7074;51.508;7.018;2024-01-30T08:43:49;11.40;99.90
13998;DHT22;7074;51.508;7.018;2024-01-30T08:46:18;11.40;99.90
13998;DHT22;7074;51.508;7.018;2024-01-30T08:48:46;11.50;99.90
13998;DHT22;7074;51.508;7.018;2024-01-30T08:51:13;11.50;99.90
13998;DHT22;7074;51.508;7.018;2024-01-30T08:53:42;11.50;99.90
13998;DHT22;7074;51.508;7.018;2024-01-30T08:56:09;11.50;99.90
13998;DHT22;7074;51.508;7.018;2024-01-30T08:58:37;11.50;99.90
13998;DHT22;7074;51.508;7.018;2024-01-30T09:01:04;11.50;99.90
13998;DHT22;7074;51.508;7.018;2024-01-30T09:03:32;11.50;99.90
13998;DHT22;7074;51.508;7.018;2024-01-30T09:05:59;11.60;99.90
13998;DHT22;7074;51.508;7.018;2024-01-30T09:08:27;11.60;99.90
13998;DHT22;7074;51.508;7.018;2024-01-30T09:10:56;11.60;99.90
13998;DHT22;7074;51.508;7.018;2024-01-30T09:13:23;11.60;99.90
13998;DHT22;7074;51.508;7.018;2024-01-30T09:15:50;11.60;99.90
13998;DHT22;7074;51.508;7.018;2024-01-30T09:18:18;11.70;99.90
13998;DHT22;7074;51.508;7.018;2024-01-30T09:20:46;11.70;99.90
13998;DHT22;7074;51.508;7.018;2024-01-30T09:23:13;11.80;99.90
13998;DHT22;7074;51.508;7.018;2024-01-30T09:25:40;11.80;99.90
13998;DHT22;7074;51.508;7.018;2024-01-30T09:28:09;11.80;99.90
13998;DHT22;7074;51.508;7.018;2024-01-30T09:30:37;11.80;99.90
13998;DHT22;7074;51.508;7.018;2024-01-30T09:33:04;11.80;99.90
13998;DHT22;7074;51.508;7.018;2024-01-30T09:35:32;11.90;99.90
13998;DHT22;7074;51.508;7.018;2024-01-30T09:37:59;11.90;99.90
13998;DHT22;7074;51.508;7.018;2024-01-30T09:40:27;12.00;99.90
13998;DHT22;7074;51.508;7.018;2024-01-30T09:42:55;12.00;99.90
13998;DHT22;7074;51.508;7.018;2024-01-30T09:45:25;12.00;99.90
13998;DHT22;7074;51.508;7.018;2024-01-30T09:47:53;12.10;99.90
13998;DHT22;7074;51.508;7.018;2024-01-30T09:50:20;12.20;99.90
13998;DHT22;7074;51.508;7.018;2024-01-30T09:52:47;12.20;99.90
13998;DHT22;7074;51.508;7.018;2024-01-30T09:55:15;12.30;99.90
13998;DHT22;7074;51.508;7.018;2024-01-30T09:57:43;12.40;99.90
13998;DHT22;7074;51.508;7.018;2024-01-30T10:00:12;12.50;99.90
13998;DHT22;7074;51.508;7.018;2024-01-30T10:02:41;12.60;99.90
13998;DHT22;7074;51.508;7.018;2024-01-30T10:05:08;12.50;99.90
13998;DHT22;7074;51.508;7.018;2024-01-30T10:07:39;12.60;99.90
13998;DHT22;7074;51.508;7.018;2024-01-30T10:10:16;12.70;99.90
13998;DHT22;7074;51.508;7.018;2024-01-30T10:12:44;12.70;99.90
13998;DHT22;7074;51.508;7.018;2024-01-30T10:15:11;12.70;99.90
13998;DHT22;7074;51.508;7.018;2024-01-30T10:17:40;12.80;99.90
13998;DHT22;7074;51.508;7.018;2024-01-30T10:20:11;12.80;99.90
13998;DHT22;7074;51.508;7.018;2024-01-30T10:23:13;12.90;99.90
13998;DHT22;7074;51.508;7.018;2024-01-30T10:25:41;13.00;99.90
13998;DHT22;7074;51.508;7.018;2024-01-30T10:28:09;13.00;99.90
13998;DHT22;7074;51.508;7.018;2024-01-30T10:30:36;13.10;99.90
13998;DHT22;7074;51.508;7.018;2024-01-30T10:33:05;13.20;99.90
13998;DHT22;7074;51.508;7.018;2024-01-30T10:35:32;13.20;99.90
13998;DHT22;7074;51.508;7.018;2024-01-30T10:38:00;13.20;99.90
13998;DHT22;7074;51.508;7.018;2024-01-30T10:40:29;13.20;99.90
13998;DHT22;7074;51.508;7.018;2024-01-30T10:43:01;13.30;99.90
13998;DHT22;7074;51.508;7.018;2024-01-30T10:45:29;13.30;99.90
13998;DHT22;7074;51.508;7.018;2024-01-30T10:47:58;13.30;99.90
13998;DHT22;7074;51.508;7.018;2024-01-30T10:50:29;13.40;99.90
13998;DHT22;7074;51.508;7.018;2024-01-30T10:52:59;13.40;99.90
13998;DHT22;7074;51.508;7.018;2024-01-30T10:55:28;13.40;99.90
13998;DHT22;7074;51.508;7.018;2024-01-30T10:57:56;13.40;99.90
13998;DHT22;7074;51.508;7.018;2024-01-30T11:00:25;13.40;99.90
13998;DHT22;7074;51.508;7.018;2024-01-30T11:02:52;13.40;99.90
13998;DHT22;7074;51.508;7.018;2024-01-30T11:05:29;13.40;99.90
13998;DHT22;7074;51.508;7.018;2024-01-30T11:07:56;13.40;99.90
13998;DHT22;7074;51.508;7.018;2024-01-30T11:10:25;13.40;99.90
13998;DHT22;7074;51.508;7.018;2024-01-30T11:12:52;13.40;99.90
13998;DHT22;7074;51.508;7.018;2024-01-30T11:15:19;13.40;99.90
13998;DHT22;7074;51.508;7.018;2024-01-30T11:17:51;13.40;99.90
13998;DHT22;7074;51.508;7.018;2024-01-30T11:20:20;13.50;99.90
13998;DHT22;7074;51.508;7.018;2024-01-30T11:22:51;13.50;99.90
13998;DHT22;7074;51.508;7.018;2024-01-30T11:25:20;13.60;99.90
13998;DHT22;7074;51.508;7.018;2024-01-30T11:27:50;13.60;99.90
13998;DHT22;7074;51.508;7.018;2024-01-30T11:30:22;13.60;99.90
13998;DHT22;7074;51.508;7.018;2024-01-30T11:33:00;13.60;99.90
13998;DHT22;7074;51.508;7.018;2024-01-30T11:35:30;13.50;99.90
13998;DHT22;7074;51.508;7.018;2024-01-30T11:37:59;13.60;99.90
13998;DHT22;7074;51.508;7.018;2024-01-30T11:40:28;13.60;99.90
13998;DHT22;7074;51.508;7.018;2024-01-30T11:42:56;13.50;99.90
13998;DHT22;7074;51.508;7.018;2024-01-30T11:45:23;13.50;99.90
13998;DHT22;7074;51.508;7.018;2024-01-30T11:47:50;13.50;99.90
13998;DHT22;7074;51.508;7.018;2024-01-30T11:50:18;13.50;99.90
13998;DHT22;7074;51.508;7.018;2024-01-30T11:52:45;13.50;99.90
13998;DHT22;7074;51.508;7.018;2024-01-30T11:55:14;13.50;99.90
13998;DHT22;7074;51.508;7.018;2024-01-30T11:57:42;13.50;99.90
13998;DHT22;7074;51.508;7.018;2024-01-30T12:00:15;13.50;99.90
13998;DHT22;7074;51.508;7.018;2024-01-30T12:02:42;13.50;99.90
13998;DHT22;7074;51.508;7.018;2024-01-30T12:05:10;13.40;99.90
13998;DHT22;7074;51.508;7.018;2024-01-30T12:07:38;13.50;99.90
13998;DHT22;7074;51.508;7.018;2024-01-30T12:10:06;13.40;99.90
13998;DHT22;7074;51.508;7.018;2024-01-30T12:12:37;13.50;99.90
13998;DHT22;7074;51.508;7.018;2024-01-30T12:15:06;13.50;99.90
13998;DHT22;7074;51.508;7.018;2024-01-30T12:17:34;13.50;99.90
13998;DHT22;7074;51.508;7.018;2024-01-30T12:20:05;13.50;99.90
13998;DHT22;7074;51.508;7.018;2024-01-30T12:22:36;13.50;99.90
13998;DHT22;7074;51.508;7.018;2024-01-30T12:25:05;13.50;99.90
13998;DHT22;7074;51.508;7.018;2024-01-30T12:27:32;13.50;99.90
13998;DHT22;7074;51.508;7.018;2024-01-30T12:30:01;13.50;99.90
13998;DHT22;7074;51.508;7.018;2024-01-30T12:32:31;13.50;99.90
13998;DHT22;7074;51.508;7.018;2024-01-30T12:35:01;13.50;99.90
13998;DHT22;7074;51.508;7.018;2024-01-30T12:37:29;13.50;99.90
13998;DHT22;7074;51.508;7.018;2024-01-30T12:39:57;13.50;99.90
13998;DHT22;7074;51.508;7.018;2024-01-30T12:42:24;13.50;99.90
13998;DHT22;7074;51.508;7.018;2024-01-30T12:44:53;13.50;99.90
13998;DHT22;7074;51.508;7.018;2024-01-30T12:47:47;13.50;99.90
13998;DHT22;7074;51.508;7.018;2024-01-30T12:50:14;13.50;99.90
13998;DHT22;7074;51.508;7.018;2024-01-30T12:52:43;13.50;99.90
13998;DHT22;7074;51.508;7.018;2024-01-30T12:55:21;13.50;99.90
13998;DHT22;7074;51.508;7.018;2024-01-30T12:57:48;13.50;99.90
13998;DHT22;7074;51.508;7.018;2024-01-30T13:00:16;13.50;99.90
13998;DHT22;7074;51.508;7.018;2024-01-30T13:02:44;13.50;99.90
13998;DHT22;7074;51.508;7.018;2024-01-30T13:05:13;13.50;99.90
13998;DHT22;7074;51.508;7.018;2024-01-30T13:07:40;13.50;99.90
13998;DHT22;7074;51.508;7.018;2024-01-30T13:10:08;13.50;99.90
13998;DHT22;7074;51.508;7.018;2024-01-30T13:12:35;13.40;99.90
13998;DHT22;7074;51.508;7.018;2024-01-30T13:15:04;13.40;99.90
13998;DHT22;7074;51.508;7.018;2024-01-30T13:17:32;13.40;99.90
13998;DHT22;7074;51.508;7.018;2024-01-30T13:20:00;13.40;99.90
13998;DHT22;7074;51.508;7.018;2024-01-30T13:22:31;13.50;99.90
13998;DHT22;7074;51.508;7.018;2024-01-30T13:24:59;13.40;99.90
13998;DHT22;7074;51.508;7.018;2024-01-30T13:27:28;13.40;99.90
13998;DHT22;7074;51.508;7.018;2024-01-30T13:29:58;13.40;99.90
13998;DHT22;7074;51.508;7.018;2024-01-30T13:32:27;13.40;99.90
13998;DHT22;7074;51.508;7.018;2024-01-30T13:34:54;13.50;99.90
13998;DHT22;7074;51.508;7.018;2024-01-30T13:37:22;13.50;99.90
13998;DHT22;7074;51.508;7.018;2024-01-30T13:39:51;13.50;99.90
13998;DHT22;7074;51.508;7.018;2024-01-30T13:42:18;13.50;99.90
13998;DHT22;7074;51.508;7.018;2024-01-30T13:44:46;13.50;99.90
13998;DHT22;7074;51.508;7.018;2024-01-30T13:47:13;13.50;99.90
13998;DHT22;7074;51.508;7.018;2024-01-30T13:49:43;13.50;99.90
13998;DHT22;7074;51.508;7.018;2024-01-30T13:52:16;13.50;99.90
13998;DHT22;7074;51.508;7.018;2024-01-30T13:54:45;13.50;99.90
13998;DHT22;7074;51.508;7.018;2024-01-30T13:57:14;13.50;99.90
13998;DHT22;7074;51.508;7.018;2024-01-30T13:59:41;13.50;99.90
13998;DHT22;7074;51.508;7.018;2024-01-30T14:02:09;13.50;99.90
13998;DHT22;7074;51.508;7.018;2024-01-30T14:04:48;13.50;99.90
13998;DHT22;7074;51.508;7.018;2024-01-30T14:07:15;13.50;99.90
13998;DHT22;7074;51.508;7.018;2024-01-30T14:09:46;13.50;99.90
13998;DHT22;7074;51.508;7.018;2024-01-30T14:12:15;13.50;99.90
13998;DHT22;7074;51.508;7.018;2024-01-30T14:14:44;13.50;99.90
13998;DHT22;7074;51.508;7.018;2024-01-30T14:17:11;13.50;99.90
13998;DHT22;7074;51.508;7.018;2024-01-30T14:19:39;13.50;99.90
13998;DHT22;7074;51.508;7.018;2024-01-30T14:22:08;13.50;99.90
13998;DHT22;7074;51.508;7.018;2024-01-30T14:24:40;13.60;99.90
13998;DHT22;7074;51.508;7.018;2024-01-30T14:27:18;13.60;99.90
13998;DHT22;7074;51.508;7.018;2024-01-30T14:29:47;13.50;99.90
13998;DHT22;7074;51.508;7.018;2024-01-30T14:32:17;13.60;99.90
13998;DHT22;7074;51.508;7.018;2024-01-30T14:34:45;13.60;99.90
13998;DHT22;7074;51.508;7.018;2024-01-30T14:37:13;13.60;99.90
13998;DHT22;7074;51.508;7.018;2024-01-30T14:39:43;13.60;99.90
13998;DHT22;7074;51.508;7.018;2024-01-30T14:42:10;13.60;99.90
13998;DHT22;7074;51.508;7.018;2024-01-30T14:44:42;13.50;99.90
13998;DHT22;7074;51.508;7.018;2024-01-30T14:47:17;13.50;99.90
13998;DHT22;7074;51.508;7.018;2024-01-30T14:49:48;13.50;99.90
13998;DHT22;7074;51.508;7.018;2024-01-30T14:52:16;13.50;99.90
13998;DHT22;7074;51.508;7.018;2024-01-30T14:54:49;13.50;99.90
13998;DHT22;7074;51.508;7.018;2024-01-30T14:57:17;13.50;99.90
13998;DHT22;7074;51.508;7.018;2024-01-30T14:59:46;13.50;99.90
13998;DHT22;7074;51.508;7.018;2024-01-30T15:02:14;13.50;99.90
13998;DHT22;7074;51.508;7.018;2024-01-30T15:04:41;13.50;99.90
13998;DHT22;7074;51.508;7.018;2024-01-30T15:07:11;13.40;99.90
13998;DHT22;7074;51.508;7.018;2024-01-30T15:09:39;13.40;99.90
13998;DHT22;7074;51.508;7.018;2024-01-30T15:12:07;13.30;99.90
13998;DHT22;7074;51.508;7.018;2024-01-30T15:14:40;13.30;99.90
13998;DHT22;7074;51.508;7.018;2024-01-30T15:17:17;13.20;99.90
13998;DHT22;7074;51.508;7.018;2024-01-30T15:19:45;13.10;99.90
13998;DHT22;7074;51.508;7.018;2024-01-30T15:22:16;13.00;99.90
13998;DHT22;7074;51.508;7.018;2024-01-30T15:24:46;12.90;99.90
13998;DHT22;7074;51.508;7.018;2024-01-30T15:27:13;12.90;99.90
13998;DHT22;7074;51.508;7.018;2024-01-30T15:29:41;12.90;99.90
13998;DHT22;7074;51.508;7.018;2024-01-30T15:32:09;12.90;99.90
13998;DHT22;7074;51.508;7.018;2024-01-30T15:34:38;12.80;99.90
13998;DHT22;7074;51.508;7.018;2024-01-30T15:37:05;12.80;99.90
13998;DHT22;7074;51.508;7.018;2024-01-30T15:39:32;12.80;99.90
13998;DHT22;7074;51.508;7.018;2024-01-30T15:42:01;12.70;99.90
13998;DHT22;7074;51.508;7.018;2024-01-30T15:44:29;12.80;99.90
13998;DHT22;7074;51.508;7.018;2024-01-30T15:47:00;12.80;99.90
13998;DHT22;7074;51.508;7.018;2024-01-30T15:49:28;12.80;99.90
13998;DHT22;7074;51.508;7.018;2024-01-30T15:51:59;12.70;99.90
13998;DHT22;7074;51.508;7.018;2024-01-30T15:54:26;12.70;99.90
13998;DHT22;7074;51.508;7.018;2024-01-30T15:56:54;12.60;99.90
13998;DHT22;7074;51.508;7.018;2024-01-30T15:59:21;12.50;99.90
13998;DHT22;7074;51.508;7.018;2024-01-30T16:01:49;12.50;99.90
13998;DHT22;7074;51.508;7.018;2024-01-30T16:04:16;12.50;99.90
13998;DHT22;7074;51.508;7.018;2024-01-30T16:06:44;12.50;99.90
13998;DHT22;7074;51.508;7.018;2024-01-30T16:09:20;12.50;99.90
13998;DHT22;7074;51.508;7.018;2024-01-30T16:11:50;12.50;99.90